Time;durP1;ratioP1;P1;durP2;ratioP2;P2;SDS_P1;SDS_P2;PMS_P1;PMS_P2;Temp;Humidity;BMP_temperature;BMP_pressure;BME280_temperature;BME280_humidity;BME280_pressure;Samples;Min_cycle;Max_cycle;Signal;HPM_P1;HPM_P2
2023/11/17 00:00:54;;;;;;;0.90;0.40;;;14.70;99.90;;;;;;5011609;28;20026;-44
2023/11/17 00:03:20;;;;;;;0.88;0.43;;;14.70;99.90;;;;;;5011730;28;20541;-46
2023/11/17 00:05:46;;;;;;;0.73;0.40;;;14.70;99.90;;;;;;5011843;28;20029;-46
2023/11/17 00:08:12;;;;;;;0.60;0.50;;;14.70;99.90;;;;;;5012703;28;20034;-46
2023/11/17 00:10:38;;;;;;;0.75;0.40;;;14.70;99.90;;;;;;5027380;28;20030;-45
2023/11/17 00:13:04;;;;;;;2.13;0.40;;;14.70;99.90;;;;;;5012715;28;20034;-46
2023/11/17 00:15:30;;;;;;;0.73;0.40;;;14.70;99.90;;;;;;5011477;28;20056;-46
2023/11/17 00:17:55;;;;;;;0.50;0.40;;;14.70;99.90;;;;;;5012103;28;20396;-46
2023/11/17 00:20:22;;;;;;;0.43;0.30;;;14.70;99.90;;;;;;5011883;28;20033;-44
2023/11/17 00:22:48;;;;;;;0.52;0.43;;;14.70;99.90;;;;;;5011828;28;20152;-46
2023/11/17 00:25:14;;;;;;;0.77;0.38;;;14.70;99.90;;;;;;5016243;28;20578;-45
2023/11/17 00:27:41;;;;;;;0.40;0.30;;;14.70;99.90;;;;;;5017347;28;20022;-45
2023/11/17 00:30:07;;;;;;;0.77;0.40;;;14.60;99.90;;;;;;5015805;28;20018;-44
2023/11/17 00:32:33;;;;;;;1.17;0.43;;;14.60;99.90;;;;;;5015300;28;20022;-46
2023/11/17 00:35:00;;;;;;;0.45;0.30;;;14.70;99.90;;;;;;5016190;28;20025;-46
2023/11/17 00:37:26;;;;;;;0.32;0.32;;;14.60;99.90;;;;;;5015067;28;20017;-46
2023/11/17 00:39:54;;;;;;;0.47;0.40;;;14.60;99.90;;;;;;5015137;28;20032;-46
2023/11/17 00:42:19;;;;;;;0.73;0.40;;;14.60;99.90;;;;;;5016074;28;20033;-45
2023/11/17 00:44:46;;;;;;;1.20;0.47;;;14.70;99.90;;;;;;5015543;28;20076;-46
2023/11/17 00:47:12;;;;;;;0.50;0.38;;;14.60;99.90;;;;;;5014907;28;20026;-46
2023/11/17 00:49:40;;;;;;;0.60;0.30;;;14.60;99.90;;;;;;5014899;28;20553;-45
2023/11/17 00:52:06;;;;;;;0.57;0.25;;;14.60;99.90;;;;;;5014964;28;20030;-46
2023/11/17 00:54:37;;;;;;;0.47;0.30;;;14.60;99.90;;;;;;5015039;28;20109;-43
2023/11/17 00:57:03;;;;;;;0.40;0.22;;;14.60;99.90;;;;;;5015925;28;20094;-46
2023/11/17 00:59:29;;;;;;;0.35;0.30;;;14.60;99.90;;;;;;5014685;28;20029;-46
2023/11/17 01:01:55;;;;;;;0.57;0.50;;;14.60;99.90;;;;;;5014913;28;20387;-46
2023/11/17 01:04:21;;;;;;;0.30;0.30;;;14.60;99.90;;;;;;5015197;28;20025;-44
2023/11/17 01:06:53;;;;;;;0.38;0.20;;;14.60;99.90;;;;;;5014732;28;20030;-44
2023/11/17 01:09:22;;;;;;;0.50;0.30;;;14.60;99.90;;;;;;5014551;28;20022;-46
2023/11/17 01:11:48;;;;;;;0.93;0.40;;;14.60;99.90;;;;;;5014570;28;20030;-45
2023/11/17 01:14:15;;;;;;;0.45;0.30;;;14.60;99.90;;;;;;5014456;28;20112;-45
2023/11/17 01:16:40;;;;;;;0.50;0.38;;;14.50;99.90;;;;;;5014418;28;20030;-46
2023/11/17 01:19:06;;;;;;;0.35;0.20;;;14.50;99.90;;;;;;5015053;28;20392;-46
2023/11/17 01:21:32;;;;;;;0.55;0.20;;;14.50;99.90;;;;;;5014650;28;20400;-45
2023/11/17 01:24:00;;;;;;;0.73;0.20;;;14.60;99.90;;;;;;5014366;28;20048;-44
2023/11/17 01:26:26;;;;;;;1.08;0.43;;;14.50;99.90;;;;;;5014684;28;20053;-46
2023/11/17 01:28:51;;;;;;;0.30;0.30;;;14.60;99.90;;;;;;5014223;28;20115;-45
2023/11/17 01:31:19;;;;;;;0.28;0.20;;;14.50;99.90;;;;;;5014208;28;20091;-45
2023/11/17 01:33:48;;;;;;;0.32;0.20;;;14.50;99.90;;;;;;5014434;28;20030;-44
2023/11/17 01:36:20;;;;;;;0.35;0.30;;;14.50;99.90;;;;;;5014451;28;20030;-46
2023/11/17 01:38:46;;;;;;;0.30;0.20;;;14.50;99.90;;;;;;5014311;28;20499;-44
2023/11/17 01:41:12;;;;;;;0.50;0.22;;;14.50;99.90;;;;;;5014281;28;20095;-46
2023/11/17 01:43:38;;;;;;;1.40;0.30;;;14.50;99.90;;;;;;5014062;28;20364;-45
2023/11/17 01:46:05;;;;;;;3.60;0.40;;;14.50;99.90;;;;;;5013846;28;20491;-46
2023/11/17 01:48:34;;;;;;;0.50;0.30;;;14.50;99.90;;;;;;5013849;28;20053;-45
2023/11/17 01:51:01;;;;;;;1.52;0.30;;;14.50;99.90;;;;;;5013873;28;20022;-46
2023/11/17 01:53:27;;;;;;;2.03;0.50;;;14.50;99.90;;;;;;5014729;28;20032;-45
2023/11/17 01:55:53;;;;;;;1.08;0.30;;;14.50;99.90;;;;;;5013979;28;20113;-45
2023/11/17 01:58:20;;;;;;;0.73;0.30;;;14.50;99.90;;;;;;5013540;28;20540;-44
2023/11/17 02:00:46;;;;;;;1.08;0.35;;;14.50;99.90;;;;;;5014384;28;20040;-46
2023/11/17 02:03:13;;;;;;;0.88;0.30;;;14.50;99.90;;;;;;5016317;28;20108;-46
2023/11/17 02:05:39;;;;;;;1.05;0.38;;;14.50;99.90;;;;;;5014237;28;20022;-46
2023/11/17 02:08:35;;;;;;;1.35;0.35;;;14.50;99.90;;;;;;5013744;28;20030;-44
2023/11/17 02:11:00;;;;;;;0.32;0.28;;;14.50;99.90;;;;;;5029710;28;20030;-45
2023/11/17 02:13:37;;;;;;;0.63;0.40;;;14.40;99.90;;;;;;5014265;28;20109;-45
2023/11/17 02:16:10;;;;;;;0.95;0.40;;;14.40;99.90;;;;;;5014920;28;20030;-43
2023/11/17 02:18:40;;;;;;;1.33;0.30;;;14.40;99.90;;;;;;5014431;28;20022;-46
2023/11/17 02:21:07;;;;;;;0.65;0.30;;;14.40;99.90;;;;;;5013444;28;20137;-46
2023/11/17 02:23:36;;;;;;;0.38;0.20;;;14.40;99.90;;;;;;5013284;28;20033;-45
2023/11/17 02:26:17;;;;;;;1.13;0.30;;;14.40;99.90;;;;;;5013028;28;20022;-45
2023/11/17 02:28:59;;;;;;;0.70;0.15;;;14.50;99.90;;;;;;5014232;28;20068;-46
2023/11/17 02:31:31;;;;;;;0.65;0.40;;;14.40;99.90;;;;;;5013228;28;20022;-46
2023/11/17 02:34:08;;;;;;;0.30;0.25;;;14.40;99.90;;;;;;5013328;28;20030;-46
2023/11/17 02:36:36;;;;;;;1.67;0.40;;;14.40;99.90;;;;;;5013289;28;20025;-46
2023/11/17 02:39:21;;;;;;;0.32;0.28;;;14.40;99.90;;;;;;5012542;28;20030;-45
2023/11/17 02:41:56;;;;;;;0.50;0.10;;;14.40;99.90;;;;;;5012889;28;20027;-46
2023/11/17 02:44:34;;;;;;;0.63;0.20;;;14.40;99.90;;;;;;5012782;28;20375;-46
2023/11/17 02:47:03;;;;;;;0.55;0.30;;;14.40;99.90;;;;;;5012408;28;20384;-46
2023/11/17 02:49:46;;;;;;;0.75;0.40;;;14.40;99.90;;;;;;5012671;28;20436;-46
2023/11/17 02:52:23;;;;;;;0.60;0.30;;;14.40;99.90;;;;;;5013317;28;20448;-46
2023/11/17 02:54:50;;;;;;;0.50;0.30;;;14.40;99.90;;;;;;5012826;28;20021;-44
2023/11/17 02:57:21;;;;;;;1.02;0.30;;;14.40;99.90;;;;;;5012458;28;20480;-46
2023/11/17 02:59:47;;;;;;;1.73;0.40;;;14.40;99.90;;;;;;5014415;28;20038;-46
2023/11/17 03:02:15;;;;;;;0.85;0.50;;;14.40;99.90;;;;;;5012611;28;20570;-46
2023/11/17 03:04:42;;;;;;;0.32;0.20;;;14.40;99.90;;;;;;5012424;28;20018;-46
2023/11/17 03:07:07;;;;;;;0.45;0.30;;;14.40;99.90;;;;;;5012541;28;20116;-45
2023/11/17 03:09:34;;;;;;;1.15;0.40;;;14.40;99.90;;;;;;5012740;28;20109;-46
2023/11/17 03:12:00;;;;;;;0.93;0.45;;;14.40;99.90;;;;;;5013037;28;20025;-46
2023/11/17 03:14:27;;;;;;;0.70;0.30;;;14.40;99.90;;;;;;5012676;28;20037;-45
2023/11/17 03:16:53;;;;;;;0.60;0.30;;;14.40;99.90;;;;;;5013435;28;20030;-45
2023/11/17 03:19:19;;;;;;;0.68;0.30;;;14.30;99.90;;;;;;5012253;28;20030;-45
2023/11/17 03:21:45;;;;;;;0.70;0.30;;;14.40;99.90;;;;;;5012237;28;20025;-46
2023/11/17 03:24:20;;;;;;;1.55;0.20;;;14.40;99.90;;;;;;5012635;28;20290;-44
2023/11/17 03:26:55;;;;;;;0.50;0.30;;;14.40;99.90;;;;;;5012451;28;20491;-46
2023/11/17 03:29:22;;;;;;;;;;;14.40;99.90;;;;;;5013380;28;20391;-44
2023/11/17 03:31:52;;;;;;;1.05;0.30;;;14.40;99.90;;;;;;5012392;28;20363;-45
2023/11/17 03:34:29;;;;;;;0.52;0.30;;;14.40;99.90;;;;;;5012009;28;20080;-44
2023/11/17 03:36:56;;;;;;;1.02;0.30;;;14.30;99.90;;;;;;5012068;28;20499;-46
2023/11/17 03:39:26;;;;;;;0.88;0.30;;;14.30;99.90;;;;;;5013006;28;20044;-46
2023/11/17 03:41:52;;;;;;;0.65;0.30;;;14.40;99.90;;;;;;5012525;28;20036;-46
2023/11/17 03:44:18;;;;;;;0.20;0.20;;;14.30;99.90;;;;;;5013374;28;20030;-46
2023/11/17 03:46:48;;;;;;;1.52;0.30;;;14.40;99.90;;;;;;5013674;28;20554;-46
2023/11/17 03:49:14;;;;;;;0.95;0.30;;;14.40;99.90;;;;;;5013313;28;20024;-46
2023/11/17 03:51:40;;;;;;;0.30;0.17;;;14.40;99.90;;;;;;5012437;28;20414;-45
2023/11/17 03:54:06;;;;;;;0.55;0.30;;;14.50;99.90;;;;;;5013068;28;20125;-46
2023/11/17 03:56:32;;;;;;;0.35;0.20;;;14.50;99.90;;;;;;5011862;28;20038;-46
2023/11/17 03:58:58;;;;;;;0.45;0.30;;;14.60;99.90;;;;;;5012575;28;20431;-45
2023/11/17 04:01:25;;;;;;;0.57;0.20;;;14.60;99.90;;;;;;5014134;28;20517;-45
2023/11/17 04:03:52;;;;;;;0.38;0.20;;;14.60;99.90;;;;;;5012348;28;20032;-45
2023/11/17 04:06:20;;;;;;;0.40;0.20;;;14.70;99.90;;;;;;5011697;28;20022;-45
2023/11/17 04:08:47;;;;;;;0.20;0.10;;;14.80;99.90;;;;;;5011486;28;20041;-45
2023/11/17 04:11:15;;;;;;;0.40;0.20;;;14.80;99.90;;;;;;5012137;28;20026;-45
2023/11/17 04:13:44;;;;;;;0.50;0.25;;;14.90;99.90;;;;;;5012595;28;20037;-45
2023/11/17 04:16:10;;;;;;;0.30;0.20;;;14.90;99.90;;;;;;5011630;28;20033;-46
2023/11/17 04:18:39;;;;;;;0.30;0.20;;;14.90;99.90;;;;;;5011603;28;20029;-44
2023/11/17 04:21:10;;;;;;;0.57;0.22;;;15.00;99.90;;;;;;5011863;28;20029;-46
2023/11/17 04:23:36;;;;;;;1.23;0.30;;;15.10;99.90;;;;;;5011445;28;20037;-46
2023/11/17 04:26:03;;;;;;;0.52;0.20;;;15.10;99.90;;;;;;5011189;28;20076;-44
2023/11/17 04:28:29;;;;;;;0.68;0.20;;;15.10;99.90;;;;;;5011194;28;20030;-44
2023/11/17 04:30:55;;;;;;;0.10;0.10;;;15.10;99.90;;;;;;5012520;28;20030;-45
2023/11/17 04:33:20;;;;;;;0.40;0.20;;;15.10;99.90;;;;;;5011355;28;20034;-46
2023/11/17 04:35:47;;;;;;;0.20;0.20;;;15.10;99.90;;;;;;5011335;28;20662;-46
2023/11/17 04:38:14;;;;;;;0.20;0.10;;;15.00;99.90;;;;;;5011015;28;20037;-46
2023/11/17 04:40:39;;;;;;;0.30;0.20;;;15.10;99.90;;;;;;5011195;28;20483;-46
2023/11/17 04:43:08;;;;;;;0.50;0.20;;;15.10;99.90;;;;;;5011560;28;20034;-45
2023/11/17 04:45:37;;;;;;;0.20;0.10;;;15.10;99.90;;;;;;5012904;28;20386;-45
2023/11/17 04:48:08;;;;;;;0.40;0.20;;;15.10;99.90;;;;;;5011259;28;20018;-46
2023/11/17 04:50:35;;;;;;;0.20;0.20;;;15.00;99.90;;;;;;5011633;28;20509;-44
2023/11/17 04:53:01;;;;;;;0.10;0.10;;;15.00;99.90;;;;;;5011707;28;20072;-45
2023/11/17 04:55:27;;;;;;;0.50;0.30;;;15.00;99.90;;;;;;5011647;28;20022;-46
2023/11/17 04:57:52;;;;;;;0.20;0.10;;;15.00;99.90;;;;;;5011039;28;20037;-45
2023/11/17 05:00:20;;;;;;;0.85;0.20;;;15.00;99.90;;;;;;5012521;28;20029;-45
2023/11/17 05:02:47;;;;;;;1.00;0.60;;;15.00;99.90;;;;;;5011479;28;20015;-46
2023/11/17 05:05:14;;;;;;;1.08;0.60;;;15.00;99.90;;;;;;5011029;28;20067;-44
2023/11/17 05:07:46;;;;;;;0.73;0.40;;;14.90;99.90;;;;;;5011006;28;20492;-45
2023/11/17 05:10:18;;;;;;;0.60;0.30;;;15.00;99.90;;;;;;5014048;28;20036;-46
2023/11/17 05:12:46;;;;;;;0.63;0.43;;;15.00;99.90;;;;;;5031042;28;20045;-45
2023/11/17 05:15:13;;;;;;;0.52;0.30;;;14.90;99.90;;;;;;5015240;28;20411;-45
2023/11/17 05:17:48;;;;;;;1.08;0.30;;;14.90;99.90;;;;;;5015127;28;20021;-45
2023/11/17 05:20:14;;;;;;;0.40;0.30;;;14.90;99.90;;;;;;5014627;28;20018;-44
2023/11/17 05:22:41;;;;;;;0.82;0.50;;;14.90;99.90;;;;;;5014367;28;20030;-46
2023/11/17 05:25:07;;;;;;;0.60;0.30;;;14.90;99.90;;;;;;5014231;28;20022;-46
2023/11/17 05:27:36;;;;;;;1.17;0.50;;;14.90;99.90;;;;;;5014181;28;20125;-48
2023/11/17 05:30:06;;;;;;;0.50;0.30;;;14.90;99.90;;;;;;5014365;28;20034;-46
2023/11/17 05:32:32;;;;;;;0.75;0.40;;;14.90;99.90;;;;;;5014252;28;20041;-45
2023/11/17 05:34:58;;;;;;;0.40;0.30;;;14.80;99.90;;;;;;5014648;28;20303;-45
2023/11/17 05:37:25;;;;;;;0.98;0.45;;;14.80;99.90;;;;;;5014963;28;20018;-45
2023/11/17 05:39:50;;;;;;;0.50;0.30;;;14.80;99.90;;;;;;5014020;28;20030;-45
2023/11/17 05:42:16;;;;;;;0.40;0.30;;;14.80;99.90;;;;;;5014795;28;20028;-45
2023/11/17 05:44:42;;;;;;;0.52;0.40;;;14.80;99.90;;;;;;5014073;28;20025;-45
2023/11/17 05:47:08;;;;;;;0.47;0.38;;;14.80;99.90;;;;;;5015647;28;20451;-45
2023/11/17 05:49:41;;;;;;;0.65;0.35;;;14.80;99.90;;;;;;5013801;28;20038;-46
2023/11/17 05:52:07;;;;;;;0.30;0.30;;;14.70;99.90;;;;;;5013898;28;20022;-45
2023/11/17 05:54:39;;;;;;;0.75;0.40;;;14.70;99.90;;;;;;5013929;28;20372;-46
2023/11/17 05:57:05;;;;;;;0.50;0.40;;;14.70;99.90;;;;;;5013737;28;20056;-45
2023/11/17 05:59:31;;;;;;;1.00;0.43;;;14.70;99.90;;;;;;5013588;28;20030;-45
2023/11/17 06:01:59;;;;;;;0.88;0.43;;;14.70;99.90;;;;;;5013632;28;20495;-45
2023/11/17 06:04:28;;;;;;;0.70;0.50;;;14.70;99.90;;;;;;5015667;28;20034;-45
2023/11/17 06:06:53;;;;;;;0.60;0.40;;;14.70;99.90;;;;;;5013973;28;20120;-45
2023/11/17 06:09:19;;;;;;;0.50;0.32;;;14.60;99.90;;;;;;5013456;28;20156;-45
2023/11/17 06:11:45;;;;;;;0.95;0.40;;;14.70;99.90;;;;;;5015020;28;20021;-46
2023/11/17 06:14:11;;;;;;;0.82;0.60;;;14.70;99.90;;;;;;5014866;28;20030;-46
2023/11/17 06:16:37;;;;;;;0.60;0.50;;;14.60;99.90;;;;;;5013274;28;20065;-46
2023/11/17 06:19:02;;;;;;;0.65;0.40;;;14.60;99.90;;;;;;5014710;28;20108;-45
2023/11/17 06:21:29;;;;;;;0.40;0.40;;;14.60;99.90;;;;;;5012210;28;20105;-46
2023/11/17 06:23:55;;;;;;;0.90;0.65;;;14.60;99.90;;;;;;5013550;28;20081;-44
2023/11/17 06:26:20;;;;;;;1.17;0.70;;;14.60;99.90;;;;;;5014476;28;20022;-46
2023/11/17 06:28:46;;;;;;;0.50;0.32;;;14.60;99.90;;;;;;5013241;28;20084;-45
2023/11/17 06:31:13;;;;;;;0.77;0.57;;;14.60;99.90;;;;;;5028210;28;20064;-45
2023/11/17 06:33:39;;;;;;;0.90;0.57;;;14.60;99.90;;;;;;5013379;28;20022;-44
2023/11/17 06:36:06;;;;;;;0.88;0.40;;;14.50;99.90;;;;;;5013909;28;20029;-46
2023/11/17 06:38:33;;;;;;;0.68;0.40;;;14.60;99.90;;;;;;5014065;28;20446;-45
2023/11/17 06:41:02;;;;;;;1.10;0.60;;;14.60;99.90;;;;;;5015773;28;20045;-45
2023/11/17 06:43:29;;;;;;;0.50;0.40;;;14.60;99.90;;;;;;5013767;28;20022;-45
2023/11/17 06:45:55;;;;;;;0.70;0.50;;;14.60;99.90;;;;;;5013258;28;20040;-46
2023/11/17 06:48:21;;;;;;;0.80;0.50;;;14.70;99.90;;;;;;5012812;28;20030;-45
2023/11/17 06:50:49;;;;;;;0.70;0.50;;;14.60;99.90;;;;;;5012962;28;20053;-45
2023/11/17 06:53:15;;;;;;;1.10;0.57;;;14.70;99.90;;;;;;5012794;28;20036;-45
2023/11/17 06:55:41;;;;;;;0.88;0.65;;;14.70;99.90;;;;;;5012540;28;20112;-46
2023/11/17 06:58:07;;;;;;;0.63;0.50;;;14.70;99.90;;;;;;5012311;28;20029;-46
2023/11/17 07:00:32;;;;;;;0.70;0.40;;;14.80;99.90;;;;;;5012598;28;20379;-46
2023/11/17 07:03:00;;;;;;;0.57;0.40;;;14.90;99.90;;;;;;5012733;28;20018;-45
2023/11/17 07:05:26;;;;;;;0.57;0.38;;;14.90;99.90;;;;;;5012591;28;20562;-46
2023/11/17 07:07:53;;;;;;;0.43;0.30;;;14.90;99.90;;;;;;5013317;28;20041;-46
2023/11/17 07:10:19;;;;;;;1.02;0.60;;;14.90;99.90;;;;;;5013805;28;20480;-46
2023/11/17 07:12:45;;;;;;;0.50;0.30;;;15.00;99.90;;;;;;5012300;28;20631;-44
2023/11/17 07:15:13;;;;;;;0.70;0.40;;;14.90;99.90;;;;;;5012724;28;20057;-45
2023/11/17 07:17:41;;;;;;;0.60;0.43;;;14.90;99.90;;;;;;5013138;28;20100;-46
2023/11/17 07:20:11;;;;;;;0.60;0.40;;;15.00;99.90;;;;;;5013906;28;20018;-46
2023/11/17 07:22:41;;;;;;;0.45;0.30;;;15.00;99.90;;;;;;5012808;28;20510;-46
2023/11/17 07:25:10;;;;;;;0.80;0.52;;;15.00;99.90;;;;;;5013289;28;20037;-45
2023/11/17 07:27:37;;;;;;;1.08;0.57;;;15.00;99.90;;;;;;5012190;28;20512;-46
2023/11/17 07:30:04;;;;;;;2.03;0.80;;;15.00;99.90;;;;;;5013212;28;20553;-45
2023/11/17 07:32:30;;;;;;;3.13;1.27;;;15.00;99.90;;;;;;5012170;28;20383;-46
2023/11/17 07:34:56;;;;;;;1.83;0.93;;;15.10;99.90;;;;;;5012663;28;20535;-46
2023/11/17 07:37:24;;;;;;;1.52;1.00;;;15.10;99.90;;;;;;5012219;28;20129;-45
2023/11/17 07:39:49;;;;;;;1.10;0.80;;;15.10;99.90;;;;;;5012972;28;20092;-45
2023/11/17 07:42:15;;;;;;;1.15;0.77;;;15.20;99.90;;;;;;5012537;28;20026;-46
2023/11/17 07:44:40;;;;;;;1.20;0.70;;;15.20;99.90;;;;;;5011743;28;20065;-46
2023/11/17 07:47:06;;;;;;;0.98;0.60;;;15.20;99.90;;;;;;5011863;28;20041;-46
2023/11/17 07:49:34;;;;;;;1.92;0.90;;;15.20;99.90;;;;;;5013243;28;20149;-45
2023/11/17 07:51:59;;;;;;;1.52;0.82;;;15.30;99.90;;;;;;5018320;28;20041;-45
2023/11/17 07:54:25;;;;;;;1.42;0.77;;;15.30;99.90;;;;;;5013240;28;20072;-45
2023/11/17 07:56:51;;;;;;;1.17;0.70;;;15.30;99.90;;;;;;5012128;28;20491;-45
2023/11/17 07:59:19;;;;;;;1.73;0.80;;;15.40;99.90;;;;;;5012583;28;20464;-45
2023/11/17 08:01:45;;;;;;;1.25;0.80;;;15.40;99.90;;;;;;5012463;28;20392;-45
2023/11/17 08:04:11;;;;;;;1.20;0.70;;;15.40;99.90;;;;;;5012852;28;20029;-46
2023/11/17 08:06:37;;;;;;;1.08;0.60;;;15.50;99.90;;;;;;5011595;28;20022;-45
2023/11/17 08:09:04;;;;;;;1.17;0.75;;;15.50;99.90;;;;;;5011507;28;20037;-45
2023/11/17 08:11:30;;;;;;;1.08;0.60;;;15.50;99.90;;;;;;5012887;28;20033;-45
2023/11/17 08:13:57;;;;;;;0.70;0.60;;;15.60;99.90;;;;;;5011601;28;20030;-45
2023/11/17 08:16:23;;;;;;;1.05;0.57;;;15.60;99.90;;;;;;5011595;28;20068;-45
2023/11/17 08:18:51;;;;;;;1.08;0.75;;;15.60;99.90;;;;;;5012336;28;20029;-46
2023/11/17 08:21:17;;;;;;;1.30;0.77;;;15.60;99.90;;;;;;5011502;28;20045;-44
2023/11/17 08:23:44;;;;;;;0.65;0.40;;;15.70;99.90;;;;;;5011320;28;20475;-46
2023/11/17 08:26:14;;;;;;;1.08;0.60;;;15.70;99.90;;;;;;5013079;28;20053;-45
2023/11/17 08:28:40;;;;;;;2.08;0.80;;;15.70;99.90;;;;;;5012172;28;20064;-45
2023/11/17 08:31:06;;;;;;;0.98;0.73;;;15.70;99.90;;;;;;5011601;28;20054;-45
2023/11/17 08:33:32;;;;;;;1.35;0.70;;;15.80;99.90;;;;;;5012770;28;20221;-45
2023/11/17 08:35:58;;;;;;;0.70;0.63;;;15.80;99.90;;;;;;5011445;28;20376;-45
2023/11/17 08:38:25;;;;;;;1.15;0.80;;;15.80;99.90;;;;;;5011434;28;20088;-46
2023/11/17 08:40:55;;;;;;;1.00;0.70;;;15.90;99.90;;;;;;5011915;28;20018;-44
2023/11/17 08:43:21;;;;;;;1.13;0.80;;;16.00;99.90;;;;;;5011361;28;20507;-45
2023/11/17 08:45:51;;;;;;;0.82;0.60;;;16.00;99.90;;;;;;5014295;28;20014;-45
2023/11/17 08:48:17;;;;;;;2.47;0.60;;;15.90;99.90;;;;;;5014759;28;20037;-45
2023/11/17 08:50:42;;;;;;;1.50;0.90;;;15.90;99.90;;;;;;5015575;28;20349;-43
2023/11/17 08:53:09;;;;;;;0.70;0.60;;;15.90;99.90;;;;;;5016350;28;20471;-43
2023/11/17 08:55:35;;;;;;;1.27;0.70;;;15.90;99.90;;;;;;5015766;28;20022;-45
2023/11/17 08:58:01;;;;;;;1.13;0.60;;;16.00;99.90;;;;;;5016434;28;20037;-45
2023/11/17 09:00:29;;;;;;;1.17;0.50;;;16.00;99.90;;;;;;5015711;28;20032;-42
2023/11/17 09:02:56;;;;;;;1.35;0.90;;;16.00;99.90;;;;;;5015629;28;20487;-45
2023/11/17 09:05:23;;;;;;;0.95;0.63;;;16.10;99.90;;;;;;5014682;28;20100;-45
2023/11/17 09:07:50;;;;;;;0.77;0.52;;;16.10;99.90;;;;;;5014521;28;20033;-45
2023/11/17 09:10:21;;;;;;;0.70;0.60;;;16.10;99.90;;;;;;5014625;28;20045;-45
2023/11/17 09:12:47;;;;;;;1.20;0.75;;;16.10;99.90;;;;;;5014646;28;20033;-43
2023/11/17 09:15:20;;;;;;;0.95;0.65;;;16.20;99.90;;;;;;5014325;28;20095;-44
2023/11/17 09:17:50;;;;;;;1.20;0.70;;;16.20;99.90;;;;;;5014202;28;20109;-45
2023/11/17 09:20:17;;;;;;;1.08;0.60;;;16.20;99.90;;;;;;5014485;28;20030;-45
2023/11/17 09:22:47;;;;;;;1.02;0.60;;;16.30;99.90;;;;;;5015561;28;20025;-43
2023/11/17 09:25:14;;;;;;;0.60;0.60;;;16.30;99.90;;;;;;5030648;28;20026;-44
2023/11/17 09:27:41;;;;;;;0.60;0.50;;;16.30;99.90;;;;;;5016934;28;20441;-44
2023/11/17 09:30:15;;;;;;;0.60;0.60;;;16.30;99.90;;;;;;5017885;28;20104;-44
2023/11/17 09:32:46;;;;;;;1.40;0.70;;;16.30;99.90;;;;;;5015237;28;20110;-45
2023/11/17 09:35:15;;;;;;;0.90;0.70;;;16.40;99.90;;;;;;5014098;28;20137;-43
2023/11/17 09:37:56;;;;;;;1.13;0.80;;;16.40;99.90;;;;;;5014360;28;20029;-43
2023/11/17 09:40:36;;;;;;;0.98;0.70;;;16.40;99.90;;;;;;5017273;28;20072;-43
2023/11/17 09:43:15;;;;;;;1.27;0.85;;;16.40;99.90;;;;;;5017801;28;20384;-44
2023/11/17 09:45:45;;;;;;;1.27;0.70;;;16.50;99.90;;;;;;5014312;28;20073;-44
2023/11/17 09:48:12;;;;;;;1.42;0.68;;;16.50;99.90;;;;;;5014574;28;20028;-44
2023/11/17 09:50:42;;;;;;;1.38;0.73;;;16.50;99.90;;;;;;5014475;28;20033;-43
2023/11/17 09:53:10;;;;;;;1.17;0.80;;;16.60;99.90;;;;;;5014867;28;20406;-44
2023/11/17 09:55:39;;;;;;;0.90;0.73;;;16.60;99.90;;;;;;5014301;28;20102;-45
2023/11/17 09:58:06;;;;;;;14.00;5.75;;;16.60;99.90;;;;;;5014555;28;20033;-43
2023/11/17 10:00:36;;;;;;;5.82;2.97;;;16.70;99.90;;;;;;5014531;28;20435;-45
2023/11/17 10:03:04;;;;;;;3.63;1.92;;;16.60;99.90;;;;;;5013924;28;20314;-45
2023/11/17 10:05:34;;;;;;;1.73;1.23;;;16.60;99.90;;;;;;5013742;28;20025;-43
2023/11/17 10:08:10;;;;;;;1.67;1.02;;;16.60;99.70;;;;;;5013475;28;20048;-43
2023/11/17 10:10:44;;;;;;;0.82;0.77;;;16.50;99.50;;;;;;5014282;28;20057;-45
2023/11/17 10:13:13;;;;;;;0.97;0.53;;;16.50;99.30;;;;;;5030278;28;20168;-42
2023/11/17 10:15:46;;;;;;;2.00;0.73;;;16.40;99.10;;;;;;5014246;28;20105;-45
2023/11/17 10:18:20;;;;;;;1.63;1.00;;;16.40;99.10;;;;;;5013406;28;20024;-42
2023/11/17 10:20:46;;;;;;;1.05;0.70;;;16.40;99.00;;;;;;5014061;28;20026;-45
2023/11/17 10:23:12;;;;;;;1.52;1.10;;;16.30;98.80;;;;;;5013368;28;20045;-43
2023/11/17 10:25:39;;;;;;;1.13;0.77;;;16.30;98.80;;;;;;5013401;28;20108;-45
2023/11/17 10:28:05;;;;;;;0.95;0.60;;;16.30;99.10;;;;;;5013539;28;20038;-45
2023/11/17 10:30:34;;;;;;;1.45;0.90;;;16.30;98.80;;;;;;5013159;28;20022;-43
2023/11/17 10:33:28;;;;;;;1.05;0.70;;;16.20;98.90;;;;;;5013110;28;20483;-44
2023/11/17 10:36:02;;;;;;;1.10;0.50;;;16.20;98.80;;;;;;5012916;28;20084;-45
2023/11/17 10:38:29;;;;;;;2.08;0.30;;;16.20;98.80;;;;;;5012780;28;20038;-43
2023/11/17 10:41:11;;;;;;;0.80;0.35;;;16.20;98.70;;;;;;5013883;28;20022;-44
2023/11/17 10:43:53;;;;;;;2.70;0.40;;;16.20;98.60;;;;;;5014930;28;20029;-45
2023/11/17 10:46:29;;;;;;;1.00;0.70;;;16.20;98.60;;;;;;5012820;28;20022;-44
2023/11/17 10:49:07;;;;;;;3.38;1.40;;;16.20;98.60;;;;;;5013632;28;20026;-45
2023/11/17 10:51:44;;;;;;;3.35;1.83;;;16.10;98.60;;;;;;5013636;28;20030;-44
2023/11/17 10:54:13;;;;;;;2.83;1.83;;;16.10;98.60;;;;;;5012747;28;20030;-45
2023/11/17 10:56:40;;;;;;;3.13;1.50;;;16.20;98.60;;;;;;5012974;28;20026;-45
2023/11/17 10:59:09;;;;;;;2.03;1.23;;;16.10;98.60;;;;;;5012453;28;20353;-45
2023/11/17 11:01:40;;;;;;;1.63;0.88;;;16.20;98.60;;;;;;5012986;28;20510;-43
2023/11/17 11:04:09;;;;;;;0.85;0.68;;;16.20;98.60;;;;;;5012617;28;20030;-42
2023/11/17 11:06:38;;;;;;;1.33;0.88;;;16.20;98.60;;;;;;5012094;28;20120;-44
2023/11/17 11:09:05;;;;;;;1.50;1.00;;;16.20;98.60;;;;;;5013180;28;20026;-41
2023/11/17 11:11:32;;;;;;;1.77;1.10;;;16.10;98.70;;;;;;5012318;28;20033;-44
2023/11/17 11:14:00;;;;;;;1.80;1.13;;;16.20;98.60;;;;;;5012814;28;20026;-45
2023/11/17 11:16:30;;;;;;;2.33;1.60;;;16.10;98.60;;;;;;5012879;28;20045;-44
2023/11/17 11:18:58;;;;;;;1.33;0.80;;;16.10;98.60;;;;;;5012132;28;20025;-45
2023/11/17 11:21:27;;;;;;;1.02;0.90;;;16.20;98.60;;;;;;5012203;28;20025;-43
2023/11/17 11:23:59;;;;;;;1.10;0.70;;;16.10;98.60;;;;;;5012143;28;20029;-45
2023/11/17 11:26:29;;;;;;;1.05;0.75;;;16.10;98.60;;;;;;5012533;28;20386;-41
2023/11/17 11:28:57;;;;;;;2.50;1.00;;;16.10;98.50;;;;;;5012356;28;20029;-43
2023/11/17 11:31:23;;;;;;;0.77;0.68;;;16.20;98.40;;;;;;5012153;28;20027;-45
2023/11/17 11:33:49;;;;;;;0.82;0.50;;;16.10;98.50;;;;;;5013394;28;20021;-44
2023/11/17 11:36:15;;;;;;;1.00;0.68;;;16.10;98.30;;;;;;5012829;28;20029;-45
2023/11/17 11:38:47;;;;;;;1.40;0.80;;;16.20;98.20;;;;;;5011845;28;20064;-43
2023/11/17 11:41:20;;;;;;;0.93;0.68;;;16.10;98.20;;;;;;5012650;28;20427;-45
2023/11/17 11:43:49;;;;;;;0.50;0.50;;;16.10;98.20;;;;;;5011984;28;20033;-44
2023/11/17 11:46:16;;;;;;;1.20;0.50;;;16.10;98.20;;;;;;5011756;28;20447;-45
2023/11/17 11:48:49;;;;;;;0.98;0.50;;;16.10;98.30;;;;;;5011643;28;20042;-45
2023/11/17 11:51:16;;;;;;;1.13;0.40;;;16.10;98.20;;;;;;5011646;28;20507;-45
2023/11/17 11:53:56;;;;;;;0.68;0.40;;;16.10;98.20;;;;;;5011764;28;20034;-44
2023/11/17 11:56:29;;;;;;;0.47;0.30;;;16.10;98.10;;;;;;5011811;28;20045;-44
2023/11/17 11:58:56;;;;;;;0.40;0.30;;;16.10;98.10;;;;;;5011877;28;20025;-42
2023/11/17 12:01:23;;;;;;;1.75;0.38;;;16.00;98.10;;;;;;5012493;28;20111;-42
2023/11/17 12:03:57;;;;;;;1.05;0.80;;;16.00;98.20;;;;;;5011658;28;20487;-45
2023/11/17 12:06:24;;;;;;;2.17;1.60;;;16.00;98.20;;;;;;5012852;28;20030;-45
2023/11/17 12:09:00;;;;;;;1.65;1.27;;;16.10;98.20;;;;;;5013027;28;20037;-45
2023/11/17 12:11:39;;;;;;;1.40;1.00;;;16.10;98.20;;;;;;5013216;28;20022;-44
2023/11/17 12:14:09;;;;;;;1.10;0.73;;;16.00;98.10;;;;;;5012628;28;20096;-45
2023/11/17 12:16:37;;;;;;;1.17;0.98;;;16.00;98.10;;;;;;5012099;28;20415;-44
2023/11/17 12:19:04;;;;;;;2.30;1.70;;;16.00;98.10;;;;;;5012021;28;20033;-44
2023/11/17 12:21:38;;;;;;;1.33;1.10;;;16.00;98.10;;;;;;5015666;28;20091;-44
2023/11/17 12:24:09;;;;;;;1.23;0.90;;;16.00;98.00;;;;;;5015643;28;20494;-44
2023/11/17 12:26:37;;;;;;;0.75;0.70;;;16.00;98.00;;;;;;5015320;28;20521;-44
2023/11/17 12:29:04;;;;;;;1.13;0.90;;;16.00;98.00;;;;;;5015525;28;20068;-44
2023/11/17 12:31:30;;;;;;;1.27;0.70;;;16.00;98.10;;;;;;5015580;28;20527;-44
2023/11/17 12:33:56;;;;;;;1.73;0.90;;;16.10;98.20;;;;;;5015338;28;20030;-43
2023/11/17 12:36:24;;;;;;;0.63;0.52;;;16.10;98.30;;;;;;5015171;28;20538;-44
2023/11/17 12:38:59;;;;;;;1.08;0.55;;;16.10;98.20;;;;;;5015935;28;20038;-45
2023/11/17 12:41:26;;;;;;;0.65;0.40;;;16.10;98.10;;;;;;5015580;28;20017;-41
2023/11/17 12:43:56;;;;;;;0.88;0.68;;;16.10;98.10;;;;;;5016986;28;20041;-44
2023/11/17 12:46:27;;;;;;;1.13;0.80;;;16.10;98.10;;;;;;5014105;28;20025;-42
2023/11/17 12:48:53;;;;;;;1.65;1.13;;;16.10;98.10;;;;;;5015287;28;20030;-44
2023/11/17 12:51:23;;;;;;;1.08;0.90;;;16.00;98.10;;;;;;5015016;28;20042;-44
2023/11/17 12:53:49;;;;;;;0.82;0.50;;;16.00;98.10;;;;;;5016202;28;20095;-41